createdAt,value
2019-03-06T02:17:36.631Z,7.00
2019-03-06T02:22:41.241Z,8.77
2019-03-06T02:27:46.061Z,7.57
2019-03-06T02:32:51.055Z,8.27
2019-03-06T02:37:55.885Z,8.37
2019-03-06T02:43:00.248Z,7.47
2019-03-06T02:48:05.677Z,8.63
2019-03-06T02:53:10.704Z,7.63
2019-03-06T02:58:23.215Z,9.47
2019-03-06T03:03:53.143Z,8.20
2019-03-06T03:08:58.123Z,8.97
2019-03-06T03:14:03.201Z,7.67
2019-03-06T03:19:09.753Z,9.03
2019-03-06T03:24:14.682Z,8.67
2019-03-06T03:29:19.773Z,8.63
2019-03-06T03:34:24.651Z,9.53
2019-03-06T03:39:31.835Z,9.03
2019-03-06T03:44:36.650Z,8.63
2019-03-06T03:49:42.226Z,5.80
2019-03-06T03:54:47.396Z,8.00
2019-03-06T03:59:51.765Z,8.43
2019-03-06T04:04:57.292Z,8.63
2019-03-06T04:10:03.650Z,7.40
2019-03-06T04:15:10.802Z,7.67
2019-03-06T04:20:16.471Z,9.17
2019-03-06T04:25:21.781Z,8.20
2019-03-06T04:30:29.076Z,7.80
2019-03-06T04:35:34.925Z,8.67
2019-03-06T04:40:42.588Z,10.07
2019-03-06T04:45:47.742Z,9.00
2019-03-06T04:50:52.119Z,8.00
2019-03-06T04:55:57.090Z,8.87
2019-03-06T05:01:01.785Z,9.23
2019-03-06T05:06:06.072Z,8.37
2019-03-06T05:11:10.462Z,7.43
2019-03-06T05:16:15.658Z,8.70
2019-03-06T05:21:20.175Z,9.40
2019-03-06T05:26:27.063Z,8.23
2019-03-06T05:31:32.705Z,9.03
2019-03-06T05:37:09.106Z,8.53
2019-03-06T05:42:14.215Z,8.53
2019-03-06T05:47:19.041Z,8.07
2019-03-06T05:52:24.486Z,5.77
2019-03-06T05:57:33.401Z,6.77
2019-03-06T06:02:44.808Z,6.80
2019-03-06T06:08:14.787Z,6.37
2019-03-06T06:14:07.580Z,6.43
2019-03-06T06:19:16.174Z,6.70
2019-03-06T06:30:50.169Z,3.97
2019-03-06T06:55:46.914Z,4.93
2019-03-06T07:01:49.449Z,6.70
2019-03-06T07:07:39.325Z,5.03
2019-03-06T07:13:03.956Z,5.07
2019-03-06T07:18:29.716Z,4.97
2019-03-06T07:23:54.670Z,6.20
2019-03-06T07:29:24.985Z,5.47
2019-03-06T07:34:47.610Z,6.23
2019-03-06T07:40:00.028Z,6.20
2019-03-06T07:45:41.149Z,5.67
2019-03-06T07:50:54.826Z,5.50
2019-03-06T07:56:09.202Z,4.67
2019-03-06T08:01:17.297Z,5.07
2019-03-06T08:06:23.234Z,4.70
2019-03-06T08:11:34.966Z,3.80
2019-03-06T08:16:59.259Z,4.80
2019-03-06T08:22:36.029Z,4.63
2019-03-06T08:27:45.364Z,4.77
2019-03-06T08:32:49.776Z,4.03
2019-03-06T08:37:55.563Z,3.77
2019-03-06T08:42:59.889Z,3.37
2019-03-06T08:48:13.926Z,3.50
2019-03-06T08:53:33.843Z,3.10
2019-03-06T08:59:13.132Z,2.90
2019-03-06T09:04:50.476Z,2.83
2019-03-06T09:10:11.378Z,1.90
2019-03-06T09:15:50.689Z,2.40
2019-03-06T09:21:11.514Z,2.17
2019-03-06T09:26:38.419Z,2.80
2019-03-06T09:32:05.136Z,2.27
2019-03-06T09:37:27.691Z,2.17
2019-03-06T09:42:44.862Z,2.23
2019-03-06T09:48:08.529Z,1.83
2019-03-06T09:53:40.042Z,2.33
2019-03-06T09:58:55.137Z,1.83
2019-03-06T10:04:31.601Z,1.87
2019-03-06T10:09:59.541Z,1.63
2019-03-06T10:15:17.423Z,1.60
2019-03-06T10:20:25.554Z,2.10
2019-03-06T10:25:35.408Z,1.80
2019-03-06T10:30:40.485Z,1.70
2019-03-06T10:35:46.283Z,1.40
2019-03-06T10:40:51.428Z,1.57
2019-03-06T10:45:59.461Z,1.53
2019-03-06T10:51:04.474Z,1.40
2019-03-06T10:56:08.850Z,1.60
2019-03-06T11:01:20.044Z,1.33
2019-03-06T11:06:25.047Z,1.60
2019-03-06T11:11:29.755Z,1.63
2019-03-06T11:16:37.909Z,2.00
2019-03-06T11:21:42.439Z,1.60
2019-03-06T11:26:51.603Z,1.87
2019-03-06T11:31:56.528Z,1.90
2019-03-06T11:37:01.030Z,1.60
2019-03-06T11:42:07.404Z,1.77
2019-03-06T11:47:14.874Z,2.00
2019-03-06T11:52:20.130Z,1.63
2019-03-06T11:57:25.554Z,2.10
2019-03-06T12:02:31.283Z,1.50
2019-03-06T12:07:37.789Z,1.70
2019-03-06T12:12:43.580Z,1.73
2019-03-06T12:17:49.097Z,1.50
2019-03-06T12:22:53.476Z,2.00
2019-03-06T12:27:57.779Z,1.93
2019-03-06T12:33:17.648Z,1.50
2019-03-06T12:38:33.320Z,1.80
2019-03-06T12:43:44.696Z,1.77
2019-03-06T12:48:57.457Z,1.60
2019-03-06T12:54:01.951Z,1.40
2019-03-06T12:59:07.232Z,1.70
2019-03-06T13:04:12.170Z,1.50
2019-03-06T13:09:18.904Z,1.80
2019-03-06T13:14:23.322Z,1.60
2019-03-06T13:19:27.925Z,1.70
2019-03-06T13:24:35.561Z,1.50
2019-03-06T13:29:40.380Z,1.30
2019-03-06T13:34:56.708Z,1.80
2019-03-06T13:39:59.006Z,1.80
2019-03-06T13:45:05.392Z,1.20
2019-03-06T13:50:24.433Z,1.90
2019-03-06T13:55:29.967Z,2.57
2019-03-06T14:00:34.709Z,2.33
2019-03-06T14:05:38.982Z,1.63
2019-03-06T14:10:45.448Z,1.77
2019-03-06T14:15:54.009Z,2.17
2019-03-06T14:20:56.376Z,1.40
2019-03-06T14:26:00.534Z,1.50
2019-03-06T14:31:08.157Z,1.80
2019-03-06T14:36:13.548Z,2.03
2019-03-06T14:41:18.215Z,1.60
2019-03-06T14:46:25.717Z,1.50
2019-03-06T14:51:40.166Z,2.07
2019-03-06T14:56:44.869Z,2.33
2019-03-06T15:02:34.779Z,2.07
2019-03-06T17:01:57.973Z,2.23
2019-03-06T17:07:03.450Z,3.20
2019-03-06T17:12:08.100Z,2.57
2019-03-06T17:17:14.233Z,3.57
2019-03-06T17:22:19.779Z,2.50
2019-03-06T17:27:26.958Z,2.90
2019-03-06T17:32:35.698Z,2.90
2019-03-06T17:37:44.637Z,3.60
2019-03-06T17:42:52.518Z,3.27
2019-03-06T17:47:57.550Z,2.40
2019-03-06T17:53:02.844Z,3.20
2019-03-06T17:58:07.324Z,3.43
2019-03-06T18:03:17.689Z,3.43
2019-03-06T18:08:22.971Z,3.00
2019-03-06T18:13:29.978Z,3.47
2019-03-06T18:18:35.125Z,4.33
2019-03-06T18:23:40.952Z,2.53
2019-03-06T18:28:47.113Z,2.97
2019-03-06T18:34:07.314Z,3.33
2019-03-06T18:39:21.030Z,3.50
2019-03-06T18:44:28.352Z,3.50
2019-03-06T18:49:37.454Z,2.90
2019-03-06T18:54:45.757Z,3.00
2019-03-06T18:59:51.761Z,2.43
2019-03-06T19:05:02.286Z,3.57
2019-03-06T19:10:14.058Z,2.90
2019-03-06T19:15:20.814Z,3.30
2019-03-06T19:21:22.703Z,2.90
2019-03-06T19:27:27.101Z,3.20
2019-03-06T19:32:34.764Z,2.87
2019-03-06T19:37:41.124Z,3.10
2019-03-06T19:42:46.964Z,3.23
2019-03-06T19:47:53.763Z,3.33
2019-03-06T19:52:58.231Z,2.57
2019-03-06T19:58:03.460Z,3.07
2019-03-06T20:03:09.366Z,2.50
2019-03-06T20:08:15.199Z,2.87
2019-03-06T20:13:19.526Z,3.37
2019-03-06T20:18:24.774Z,3.07
2019-03-06T20:23:30.360Z,3.17
2019-03-06T20:33:37.384Z,3.63
2019-03-06T20:38:42.228Z,3.50
2019-03-06T20:43:47.827Z,3.03
2019-03-06T20:48:53.577Z,4.50
2019-03-06T20:53:59.553Z,3.50
2019-03-06T20:59:06.039Z,3.50
2019-03-06T21:04:14.982Z,4.50
2019-03-06T21:09:25.559Z,4.53
2019-03-06T21:14:30.305Z,5.03
2019-03-06T21:19:37.889Z,4.83
2019-03-06T21:24:50.828Z,3.80
2019-03-06T21:30:06.504Z,3.70
2019-03-06T21:40:57.995Z,3.03
2019-03-06T21:46:25.075Z,4.47
2019-03-06T21:52:16.162Z,3.80
2019-03-06T21:57:28.794Z,4.40
2019-03-06T22:03:12.744Z,4.17
2019-03-06T22:08:35.348Z,3.83
2019-03-06T22:13:39.837Z,4.97
2019-03-06T22:18:48.321Z,3.90
2019-03-06T22:23:53.558Z,3.57
2019-03-06T22:28:58.954Z,4.67
2019-03-06T22:34:12.464Z,4.07
2019-03-06T22:39:16.783Z,3.60
2019-03-06T22:44:22.861Z,4.93
2019-03-06T22:49:27.803Z,5.23
2019-03-06T22:54:43.331Z,4.10
2019-03-06T23:00:03.279Z,5.53
2019-03-06T23:05:23.332Z,5.10
2019-03-06T23:10:30.333Z,4.40
2019-03-06T23:15:39.631Z,4.17
2019-03-06T23:20:46.992Z,4.87
2019-03-06T23:25:52.303Z,4.00
2019-03-06T23:30:58.160Z,4.00
2019-03-06T23:36:03.643Z,4.30
2019-03-06T23:41:10.651Z,4.63
2019-03-06T23:46:15.869Z,3.97
2019-03-06T23:51:28.437Z,4.00
2019-03-06T23:56:35.848Z,4.30
